Time;durP1;ratioP1;P1;durP2;ratioP2;P2;SDS_P1;SDS_P2;PMS_P1;PMS_P2;Temp;Humidity;BMP_temperature;BMP_pressure;BME280_temperature;BME280_humidity;BME280_pressure;Samples;Min_cycle;Max_cycle;Signal;HPM_P1;HPM_P2
2023/04/06 00:01:40;;;;;;;3.03;1.30;;;1.10;99.90;;;;;;5013043;28;20038;-80
2023/04/06 00:04:06;;;;;;;3.13;1.33;;;1.10;99.90;;;;;;5020353;28;20375;-81
2023/04/06 00:06:32;;;;;;;2.78;1.10;;;1.00;99.90;;;;;;5003578;28;20057;-80
2023/04/06 00:08:58;;;;;;;3.53;0.98;;;1.10;99.90;;;;;;4991890;28;20040;-80
2023/04/06 00:11:24;;;;;;;3.58;1.30;;;1.10;99.90;;;;;;4992462;28;20035;-81
2023/04/06 00:13:50;;;;;;;4.25;1.25;;;1.00;99.90;;;;;;4998775;28;20025;-81
2023/04/06 00:16:16;;;;;;;3.05;0.85;;;1.00;99.90;;;;;;5006182;28;20398;-81
2023/04/06 00:18:42;;;;;;;2.70;0.80;;;0.90;99.90;;;;;;4991486;28;20044;-81
2023/04/06 00:21:07;;;;;;;2.60;1.02;;;0.80;99.90;;;;;;4988624;28;20049;-80
2023/04/06 00:23:33;;;;;;;4.70;0.80;;;0.70;99.90;;;;;;4992453;28;20037;-81
2023/04/06 00:25:59;;;;;;;3.00;0.80;;;0.60;99.90;;;;;;4997334;28;20038;-80
2023/04/06 00:28:29;;;;;;;2.65;1.00;;;0.80;99.90;;;;;;5014472;28;20038;-80
2023/04/06 00:30:55;;;;;;;2.53;0.88;;;0.90;99.90;;;;;;4991950;28;20033;-81
2023/04/06 00:33:22;;;;;;;3.40;0.90;;;0.80;99.90;;;;;;5007339;28;20364;-80
2023/04/06 00:35:48;;;;;;;2.60;0.90;;;0.80;99.90;;;;;;4999227;28;20086;-81
2023/04/06 00:38:15;;;;;;;2.78;1.40;;;0.80;99.90;;;;;;4991682;28;20489;-81
2023/04/06 00:40:43;;;;;;;4.25;1.00;;;0.70;99.90;;;;;;5013483;28;20026;-81
2023/04/06 00:43:10;;;;;;;2.45;0.90;;;0.70;99.90;;;;;;4995028;28;20051;-80
2023/04/06 00:45:37;;;;;;;2.45;1.23;;;0.70;99.90;;;;;;4992058;28;20026;-80
2023/04/06 00:48:03;;;;;;;3.47;1.08;;;0.70;99.90;;;;;;4995708;28;20041;-80
2023/04/06 00:50:29;;;;;;;2.70;0.95;;;0.50;99.90;;;;;;4996968;28;20026;-80
2023/04/06 00:52:55;;;;;;;3.97;1.05;;;0.60;99.90;;;;;;4995625;28;20116;-80
2023/04/06 00:55:26;;;;;;;3.03;0.80;;;0.70;99.90;;;;;;4995669;28;20018;-80
2023/04/06 00:57:52;;;;;;;3.08;0.82;;;0.60;99.90;;;;;;5007967;28;20038;-80
2023/04/06 01:00:18;;;;;;;3.60;1.10;;;0.70;99.90;;;;;;4989638;28;20137;-80
2023/04/06 01:02:46;;;;;;;2.03;0.98;;;0.60;99.90;;;;;;4996917;28;20053;-81
2023/04/06 01:05:14;;;;;;;2.58;0.90;;;0.50;99.90;;;;;;4990246;28;20034;-80
2023/04/06 01:07:49;;;;;;;2.75;1.10;;;0.60;99.90;;;;;;5023633;28;20025;-80
2023/04/06 01:10:28;;;;;;;3.60;1.17;;;0.50;99.90;;;;;;5005962;28;20021;-80
2023/04/06 01:13:03;;;;;;;2.80;1.30;;;0.40;99.90;;;;;;5019268;28;20042;-81
2023/04/06 01:15:46;;;;;;;2.35;1.08;;;0.30;99.90;;;;;;4996186;28;20022;-79
2023/04/06 01:18:15;;;;;;;4.53;1.02;;;0.40;99.90;;;;;;5008103;28;20033;-80
2023/04/06 01:20:48;;;;;;;2.33;0.80;;;0.30;99.90;;;;;;5014325;28;20549;-80
2023/04/06 01:23:15;;;;;;;2.92;1.08;;;0.30;99.90;;;;;;5000922;28;20033;-80
2023/04/06 01:25:45;;;;;;;4.05;1.05;;;0.30;99.90;;;;;;5015927;28;20018;-80
2023/04/06 01:28:11;;;;;;;2.28;0.88;;;0.30;99.90;;;;;;5004645;28;20050;-80
2023/04/06 01:31:04;;;;;;;2.97;0.73;;;0.30;99.90;;;;;;5009737;28;20045;-80
2023/04/06 01:33:53;;;;;;;3.00;0.70;;;0.30;99.90;;;;;;5010902;28;20498;-81
2023/04/06 01:36:22;;;;;;;2.35;0.75;;;0.30;99.90;;;;;;4994078;28;20026;-81
2023/04/06 01:38:55;;;;;;;2.60;0.88;;;0.20;99.90;;;;;;4994124;28;20052;-80
2023/04/06 01:41:31;;;;;;;2.33;0.70;;;0.30;99.90;;;;;;5006562;28;20079;-81
2023/04/06 01:43:56;;;;;;;2.83;0.98;;;0.20;99.90;;;;;;4999877;28;20041;-79
2023/04/06 01:46:27;;;;;;;1.90;0.80;;;0.20;99.90;;;;;;4993144;28;20022;-80
2023/04/06 01:48:53;;;;;;;2.40;1.05;;;0.10;99.90;;;;;;4999261;28;20025;-82
2023/04/06 01:51:28;;;;;;;2.80;0.95;;;0.10;99.90;;;;;;4994634;28;20363;-79
2023/04/06 01:53:57;;;;;;;2.67;0.90;;;0.10;99.90;;;;;;4996171;28;20029;-81
2023/04/06 01:56:32;;;;;;;2.20;0.75;;;0.00;99.90;;;;;;4995448;28;20052;-80
2023/04/06 01:59:05;;;;;;;2.58;1.00;;;-0.10;99.90;;;;;;4995375;28;20030;-81
2023/04/06 02:01:36;;;;;;;3.65;1.17;;;0.00;99.90;;;;;;5005450;28;20072;-82
2023/04/06 02:04:02;;;;;;;2.35;0.80;;;0.10;99.90;;;;;;5010223;28;20061;-79
2023/04/06 02:06:28;;;;;;;3.40;1.10;;;0.10;99.90;;;;;;4997479;28;20041;-81
2023/04/06 02:08:54;;;;;;;2.63;1.00;;;0.00;99.90;;;;;;4993073;28;20257;-81
2023/04/06 02:11:20;;;;;;;2.63;0.88;;;-0.10;99.90;;;;;;4992585;28;20038;-80
2023/04/06 02:13:49;;;;;;;2.05;0.73;;;0.00;99.90;;;;;;5004836;28;20037;-81
2023/04/06 02:16:15;;;;;;;2.90;1.23;;;0.00;99.90;;;;;;5003787;28;20498;-81
2023/04/06 02:18:42;;;;;;;2.67;1.08;;;0.00;99.90;;;;;;5015303;28;20037;-81
2023/04/06 02:21:08;;;;;;;2.75;0.90;;;-0.20;99.90;;;;;;5026392;28;20025;-80
2023/04/06 02:23:33;;;;;;;2.33;0.80;;;-0.20;99.90;;;;;;5026091;28;20069;-80
2023/04/06 02:25:59;;;;;;;4.20;1.00;;;-0.10;99.90;;;;;;5004399;28;20025;-81
2023/04/06 02:28:25;;;;;;;2.67;1.02;;;-0.10;99.90;;;;;;5018665;28;20038;-80
2023/04/06 02:30:50;;;;;;;3.13;1.20;;;0.00;99.90;;;;;;5018445;28;20041;-80
2023/04/06 02:33:17;;;;;;;4.00;1.13;;;-0.10;99.90;;;;;;5012669;28;20021;-81
2023/04/06 02:35:45;;;;;;;4.15;0.80;;;-0.20;99.90;;;;;;5015828;28;20080;-81
2023/04/06 02:38:11;;;;;;;3.58;0.90;;;-0.20;99.90;;;;;;4997669;28;20049;-80
2023/04/06 02:40:37;;;;;;;3.95;1.35;;;-0.30;99.90;;;;;;5004675;28;20029;-81
2023/04/06 02:43:15;;;;;;;3.35;1.38;;;-0.30;99.90;;;;;;5014593;28;20064;-80
2023/04/06 02:45:41;;;;;;;2.78;0.85;;;-0.20;99.90;;;;;;5005429;28;20027;-81
2023/04/06 02:48:07;;;;;;;4.18;1.42;;;-0.30;99.90;;;;;;5000198;28;20108;-80
2023/04/06 02:50:32;;;;;;;3.42;1.35;;;-0.30;99.90;;;;;;4994887;28;20075;-81
2023/04/06 02:53:02;;;;;;;3.60;1.00;;;-0.30;99.90;;;;;;4995854;28;20156;-80
2023/04/06 02:55:28;;;;;;;4.28;1.10;;;-0.30;99.90;;;;;;4994119;28;20036;-80
2023/04/06 02:57:54;;;;;;;3.03;1.05;;;-0.40;99.90;;;;;;4988033;28;20026;-80
2023/04/06 03:00:25;;;;;;;2.60;0.85;;;-0.40;99.90;;;;;;4995177;28;20028;-81
2023/04/06 03:02:50;;;;;;;3.15;1.05;;;-0.20;99.90;;;;;;5011953;28;20030;-82
2023/04/06 03:05:17;;;;;;;2.97;1.00;;;-0.30;99.90;;;;;;4992485;28;20428;-80
2023/04/06 03:07:45;;;;;;;3.42;0.95;;;-0.30;99.90;;;;;;5004888;28;20026;-80
2023/04/06 03:10:21;;;;;;;2.47;0.98;;;-0.40;99.90;;;;;;4991383;28;20156;-81
2023/04/06 03:12:48;;;;;;;3.45;1.20;;;-0.30;99.90;;;;;;5007630;28;20045;-80
2023/04/06 03:15:16;;;;;;;5.07;1.10;;;-0.20;99.90;;;;;;4989262;28;20025;-78
2023/04/06 03:17:47;;;;;;;2.67;1.00;;;-0.30;99.90;;;;;;4989726;28;20026;-80
2023/04/06 03:20:31;;;;;;;3.03;1.20;;;-0.30;99.90;;;;;;5018407;28;20425;-81
2023/04/06 03:22:57;;;;;;;3.25;0.98;;;-0.30;99.90;;;;;;4997081;28;20137;-80
2023/04/06 03:25:27;;;;;;;2.47;0.90;;;-0.30;99.90;;;;;;5003031;28;20113;-82
2023/04/06 03:27:57;;;;;;;3.88;1.00;;;-0.30;99.90;;;;;;4992127;28;20128;-81
2023/04/06 03:30:23;;;;;;;2.78;0.90;;;-0.40;99.90;;;;;;5012416;28;20117;-82
2023/04/06 03:32:49;;;;;;;2.28;0.98;;;-0.30;99.90;;;;;;5001554;28;20324;-81
2023/04/06 03:35:15;;;;;;;4.35;1.15;;;-0.30;99.90;;;;;;4988307;28;20084;-80
2023/04/06 03:37:41;;;;;;;2.90;1.00;;;-0.40;99.90;;;;;;5012762;28;20029;-81
2023/04/06 03:40:07;;;;;;;2.22;0.80;;;-0.50;99.90;;;;;;5014753;28;21935;-81
2023/04/06 03:42:32;;;;;;;2.63;0.95;;;-0.40;99.90;;;;;;5013176;28;20435;-82
2023/04/06 03:45:04;;;;;;;3.10;0.90;;;-0.30;99.90;;;;;;5006765;28;20107;-80
2023/04/06 03:47:31;;;;;;;2.58;0.90;;;-0.30;99.90;;;;;;4986797;28;20068;-79
2023/04/06 03:50:02;;;;;;;2.58;0.90;;;-0.30;99.90;;;;;;5015620;28;20395;-81
2023/04/06 03:52:29;;;;;;;2.53;1.05;;;-0.40;99.90;;;;;;5016043;28;20029;-81
2023/04/06 03:54:55;;;;;;;4.03;1.10;;;-0.50;99.90;;;;;;5001879;28;20036;-81
2023/04/06 03:57:20;;;;;;;2.97;1.10;;;-0.50;99.90;;;;;;5008012;28;20368;-80
2023/04/06 03:59:46;;;;;;;2.63;0.82;;;-0.50;99.90;;;;;;5020428;28;20481;-81
2023/04/06 04:02:12;;;;;;;3.15;1.20;;;-0.40;99.90;;;;;;5016822;28;20022;-81
2023/04/06 04:04:38;;;;;;;3.70;1.15;;;-0.30;99.90;;;;;;4992278;28;20630;-81
2023/04/06 04:07:04;;;;;;;2.65;0.80;;;-0.30;99.90;;;;;;5019007;28;20018;-81
2023/04/06 04:09:29;;;;;;;3.10;1.10;;;-0.30;99.90;;;;;;4999859;28;20482;-80
2023/04/06 04:11:55;;;;;;;3.15;1.00;;;-0.40;99.90;;;;;;4987672;28;20088;-81
2023/04/06 04:14:21;;;;;;;2.47;0.85;;;-0.30;99.90;;;;;;4989657;28;20492;-81
2023/04/06 04:16:47;;;;;;;3.47;1.05;;;-0.30;99.90;;;;;;4993062;28;20483;-81
2023/04/06 04:19:12;;;;;;;2.78;0.98;;;-0.30;99.90;;;;;;4999134;28;20061;-82
2023/04/06 04:21:47;;;;;;;2.55;1.00;;;-0.20;99.90;;;;;;5001259;28;20355;-80
2023/04/06 04:24:20;;;;;;;2.83;0.97;;;-0.20;99.90;;;;;;4987106;28;20171;-81
2023/04/06 04:26:46;;;;;;;2.70;0.90;;;-0.20;99.90;;;;;;4988669;28;20036;-81
2023/04/06 04:29:13;;;;;;;3.58;1.00;;;-0.20;99.90;;;;;;4988216;28;20029;-81
2023/04/06 04:31:38;;;;;;;2.95;1.08;;;-0.10;99.90;;;;;;5006784;28;20414;-81
2023/04/06 04:34:11;;;;;;;3.42;0.95;;;-0.10;99.90;;;;;;4991534;28;20560;-82
2023/04/06 04:36:37;;;;;;;2.75;1.10;;;-0.10;99.90;;;;;;4990597;28;20048;-82
2023/04/06 04:39:06;;;;;;;3.25;1.35;;;-0.10;99.90;;;;;;5001407;28;20029;-81
2023/04/06 04:41:37;;;;;;;;;;;-0.20;99.90;;;;;;4989791;28;20377;-80
2023/04/06 04:44:05;;;;;;;2.50;1.00;;;0.00;99.90;;;;;;5013217;28;20020;-81
2023/04/06 04:46:31;;;;;;;3.95;1.30;;;-0.10;99.90;;;;;;4997692;28;20468;-80
2023/04/06 04:48:57;;;;;;;4.20;1.65;;;0.00;99.90;;;;;;4988954;28;20036;-80
2023/04/06 04:51:24;;;;;;;3.85;1.33;;;0.10;99.90;;;;;;4989532;28;20029;-80
2023/04/06 04:54:10;;;;;;;4.15;1.05;;;0.10;99.90;;;;;;5019299;28;20036;-82
2023/04/06 04:56:36;;;;;;;3.03;1.13;;;-0.10;99.90;;;;;;4991635;28;20120;-80
2023/04/06 04:59:15;;;;;;;3.22;1.30;;;0.10;99.90;;;;;;4996974;28;20033;-81
2023/04/06 05:01:47;;;;;;;4.85;1.67;;;0.10;99.90;;;;;;4994982;28;20042;-81
2023/04/06 05:04:13;;;;;;;3.42;1.35;;;0.10;99.90;;;;;;5009223;28;20486;-80
2023/04/06 05:06:39;;;;;;;3.28;1.13;;;0.00;99.90;;;;;;4992889;28;20029;-82
2023/04/06 05:09:05;;;;;;;4.78;1.30;;;0.10;99.90;;;;;;5003431;28;20420;-81
2023/04/06 05:11:31;;;;;;;3.58;1.40;;;0.10;99.90;;;;;;5006495;28;20026;-82
2023/04/06 05:14:00;;;;;;;3.35;1.40;;;0.20;99.90;;;;;;4998176;28;20531;-80
2023/04/06 05:16:26;;;;;;;5.53;1.33;;;0.30;99.90;;;;;;5016292;28;20074;-80
2023/04/06 05:18:52;;;;;;;3.05;1.25;;;0.50;99.90;;;;;;4990037;28;20029;-81
2023/04/06 05:21:19;;;;;;;3.50;1.45;;;0.50;99.90;;;;;;5008729;28;20466;-80
2023/04/06 05:23:54;;;;;;;3.63;1.33;;;0.60;99.90;;;;;;4997133;28;20172;-80
2023/04/06 05:26:21;;;;;;;4.97;1.42;;;0.80;99.90;;;;;;5022439;28;20065;-80
2023/04/06 05:28:48;;;;;;;3.45;1.30;;;0.90;99.90;;;;;;5003257;28;20038;-80
2023/04/06 05:31:15;;;;;;;4.00;1.38;;;1.00;99.90;;;;;;5002828;28;20120;-80
2023/04/06 05:33:46;;;;;;;3.78;1.48;;;1.10;99.90;;;;;;4999349;28;20162;-81
2023/04/06 05:36:15;;;;;;;3.25;1.50;;;1.20;99.90;;;;;;4992014;28;20021;-82
2023/04/06 05:38:43;;;;;;;4.30;1.38;;;1.30;99.90;;;;;;4999784;28;20036;-80
2023/04/06 05:41:29;;;;;;;5.85;1.90;;;1.40;99.90;;;;;;5005165;28;20057;-81
2023/04/06 05:43:55;;;;;;;3.30;1.48;;;1.50;99.90;;;;;;4993261;28;20074;-81
2023/04/06 05:46:23;;;;;;;3.85;1.75;;;1.80;99.90;;;;;;4994264;28;20164;-80
2023/04/06 05:48:49;;;;;;;5.00;1.92;;;1.80;99.90;;;;;;5002868;28;20567;-81
2023/04/06 05:51:15;;;;;;;3.45;1.38;;;1.90;99.90;;;;;;5013979;28;20022;-81
2023/04/06 05:53:46;;;;;;;;;;;2.10;99.90;;;;;;5007963;28;20030;-80
2023/04/06 05:56:12;;;;;;;4.22;1.52;;;2.10;99.90;;;;;;5009903;28;19924;-80
2023/04/06 05:58:37;;;;;;;4.13;1.88;;;2.20;99.90;;;;;;5003503;28;20479;-81
2023/04/06 06:01:05;;;;;;;3.95;2.03;;;2.30;99.90;;;;;;5010870;28;20026;-82
2023/04/06 06:03:39;;;;;;;4.32;1.55;;;2.40;99.90;;;;;;4998628;28;20037;-82
2023/04/06 06:06:05;;;;;;;4.55;2.15;;;2.50;99.90;;;;;;4993920;28;20034;-81
2023/04/06 06:08:52;;;;;;;3.10;1.33;;;2.70;99.90;;;;;;4994789;28;20042;-81
2023/04/06 06:11:19;;;;;;;4.88;1.67;;;2.70;99.90;;;;;;5017174;28;20474;-81
2023/04/06 06:13:44;;;;;;;4.80;2.28;;;2.90;99.90;;;;;;4995783;28;20033;-81
2023/04/06 06:16:10;;;;;;;4.53;2.38;;;3.10;99.90;;;;;;5001812;28;20057;-81
2023/04/06 06:18:42;;;;;;;6.43;2.28;;;3.10;99.90;;;;;;5017829;28;20029;-82
2023/04/06 06:21:07;;;;;;;3.60;2.25;;;3.30;99.90;;;;;;4988872;28;20418;-81
2023/04/06 06:23:33;;;;;;;4.18;2.53;;;3.50;99.90;;;;;;4997878;28;20034;-82
2023/04/06 06:26:00;;;;;;;4.07;2.47;;;3.60;99.90;;;;;;4993162;28;20022;-78
2023/04/06 06:28:27;;;;;;;6.10;2.70;;;3.80;99.90;;;;;;4999983;28;20120;-81
2023/04/06 06:30:53;;;;;;;5.38;2.88;;;4.00;99.90;;;;;;5004055;28;20022;-81
2023/04/06 06:33:21;;;;;;;5.72;3.13;;;4.20;99.90;;;;;;4989360;28;20486;-80
2023/04/06 06:35:51;;;;;;;5.03;2.85;;;4.30;99.90;;;;;;4992430;28;20339;-80
2023/04/06 06:38:17;;;;;;;4.68;2.10;;;4.40;99.90;;;;;;4991027;28;20030;-82
2023/04/06 06:40:43;;;;;;;4.40;2.80;;;4.40;99.90;;;;;;4998037;28;20029;-82
2023/04/06 06:43:09;;;;;;;5.53;2.90;;;4.40;99.90;;;;;;4991801;28;20477;-82
2023/04/06 06:45:46;;;;;;;5.13;2.55;;;4.50;99.90;;;;;;5004495;28;20033;-81
2023/04/06 06:48:13;;;;;;;4.93;2.63;;;4.50;99.90;;;;;;5011255;28;20152;-82
2023/04/06 06:50:39;;;;;;;8.10;2.70;;;4.60;99.90;;;;;;4988889;28;20033;-81
2023/04/06 06:53:05;;;;;;;6.18;3.47;;;4.60;99.90;;;;;;5011372;28;20052;-81
2023/04/06 06:55:31;;;;;;;6.53;3.20;;;4.80;99.90;;;;;;5025284;28;20364;-81
2023/04/06 06:57:57;;;;;;;5.28;3.28;;;4.90;99.90;;;;;;4993909;28;20033;-81
2023/04/06 07:00:22;;;;;;;7.25;3.88;;;5.10;99.90;;;;;;4994087;28;20037;-83
2023/04/06 07:02:50;;;;;;;7.75;4.18;;;5.50;99.90;;;;;;5005803;28;20278;-82
2023/04/06 07:05:16;;;;;;;8.55;3.63;;;5.80;99.90;;;;;;4988316;28;20030;-84
2023/04/06 07:07:42;;;;;;;8.88;4.07;;;6.10;99.90;;;;;;5006695;28;20057;-81
2023/04/06 07:10:09;;;;;;;8.38;5.10;;;6.30;99.90;;;;;;4990998;28;20482;-84
2023/04/06 07:12:37;;;;;;;7.33;4.37;;;6.50;99.90;;;;;;5000212;28;20116;-83
2023/04/06 07:15:03;;;;;;;8.27;4.93;;;6.60;99.90;;;;;;5000680;28;20123;-82
2023/04/06 07:17:29;;;;;;;7.80;4.35;;;6.70;99.90;;;;;;4993676;28;20390;-83
2023/04/06 07:19:55;;;;;;;11.90;5.65;;;6.80;99.90;;;;;;4996638;28;20137;-84
2023/04/06 07:22:20;;;;;;;10.45;4.78;;;6.80;99.90;;;;;;5022446;28;20041;-85
2023/04/06 07:24:46;;;;;;;7.57;4.97;;;6.90;99.90;;;;;;5006544;28;20048;-83
2023/04/06 07:27:13;;;;;;;11.20;6.75;;;7.00;99.90;;;;;;5001490;28;20026;-83
2023/04/06 07:29:39;;;;;;;10.07;5.80;;;7.10;99.90;;;;;;5002044;28;20080;-83
2023/04/06 07:32:05;;;;;;;9.77;6.40;;;7.00;99.90;;;;;;5003698;28;20493;-85
2023/04/06 07:34:32;;;;;;;9.10;5.50;;;7.10;99.90;;;;;;4998399;28;20076;-84
2023/04/06 07:36:58;;;;;;;8.63;5.38;;;7.30;99.90;;;;;;4994700;28;20059;-83
2023/04/06 07:39:26;;;;;;;11.55;7.68;;;7.50;99.90;;;;;;4989280;28;20052;-86
2023/04/06 07:41:53;;;;;;;11.00;6.45;;;7.60;99.90;;;;;;4999244;28;20041;-84
2023/04/06 07:44:19;;;;;;;10.65;6.53;;;7.60;99.90;;;;;;4992493;28;20148;-85
2023/04/06 07:46:45;;;;;;;8.45;5.88;;;7.60;99.90;;;;;;5000670;28;20517;-85
2023/04/06 07:49:12;;;;;;;11.80;6.97;;;7.80;99.90;;;;;;4999375;28;20058;-86
2023/04/06 07:51:38;;;;;;;10.18;6.35;;;7.80;99.90;;;;;;5007078;28;20025;-85
2023/04/06 07:54:07;;;;;;;9.73;5.43;;;7.80;99.90;;;;;;5013662;28;20021;-84
2023/04/06 07:56:32;;;;;;;12.63;6.82;;;8.00;99.90;;;;;;5014122;28;20037;-84
2023/04/06 07:58:58;;;;;;;11.32;6.45;;;8.20;99.90;;;;;;5013362;28;20030;-84
2023/04/06 08:01:24;;;;;;;8.10;5.70;;;8.40;99.90;;;;;;5016289;28;20026;-84
2023/04/06 08:03:50;;;;;;;9.82;6.82;;;8.60;99.90;;;;;;5013318;28;20045;-86
2023/04/06 08:06:16;;;;;;;9.75;6.38;;;8.60;99.90;;;;;;4987341;28;20083;-83
2023/04/06 08:08:42;;;;;;;10.18;6.72;;;8.60;99.90;;;;;;5001289;28;20120;-85
2023/04/06 08:11:09;;;;;;;13.18;8.13;;;8.70;99.90;;;;;;5004637;28;20107;-86
2023/04/06 08:13:35;;;;;;;13.45;8.98;;;8.80;99.90;;;;;;5011892;28;20049;-85
2023/04/06 08:16:01;;;;;;;15.68;8.40;;;8.60;99.90;;;;;;4994310;28;20034;-86
2023/04/06 08:18:29;;;;;;;10.30;6.93;;;8.50;99.90;;;;;;5001734;28;20178;-84
2023/04/06 08:20:56;;;;;;;11.90;6.90;;;8.60;99.90;;;;;;5007911;28;20080;-84
2023/04/06 08:23:22;;;;;;;10.35;7.38;;;8.50;99.90;;;;;;5005832;28;20085;-82
2023/04/06 08:25:48;;;;;;;9.40;6.53;;;8.50;99.90;;;;;;4987187;28;20054;-85
2023/04/06 08:28:14;;;;;;;9.55;5.93;;;8.50;99.90;;;;;;5013046;28;20030;-84
2023/04/06 08:30:40;;;;;;;8.10;4.85;;;8.50;99.90;;;;;;5013715;28;20076;-84
2023/04/06 08:33:06;;;;;;;11.07;6.88;;;8.60;99.90;;;;;;5009099;28;20388;-85
2023/04/06 08:35:32;;;;;;;14.35;8.20;;;8.40;99.90;;;;;;4984919;28;20090;-81
2023/04/06 08:37:58;;;;;;;12.63;8.18;;;8.40;99.90;;;;;;4986383;28;20034;-84
2023/04/06 08:40:24;;;;;;;11.55;7.35;;;8.40;99.90;;;;;;4990561;28;20026;-83
2023/04/06 08:42:55;;;;;;;11.73;6.35;;;8.50;99.90;;;;;;5012361;28;20226;-83
2023/04/06 08:45:22;;;;;;;11.63;6.55;;;8.70;99.90;;;;;;4989401;28;20045;-85
2023/04/06 08:47:54;;;;;;;12.63;7.63;;;8.80;99.90;;;;;;5022862;28;20121;-85
2023/04/06 08:50:20;;;;;;;11.40;7.35;;;8.80;99.90;;;;;;4989804;28;20037;-83
2023/04/06 08:52:48;;;;;;;12.27;7.95;;;8.90;99.90;;;;;;5003743;28;20026;-84
2023/04/06 08:55:15;;;;;;;11.63;7.50;;;9.00;99.90;;;;;;5015546;28;20038;-80
2023/04/06 08:57:42;;;;;;;10.52;6.70;;;9.10;99.90;;;;;;5012468;28;20092;-86
2023/04/06 09:00:10;;;;;;;12.30;7.63;;;9.30;99.90;;;;;;5005132;28;20037;-83
2023/04/06 09:02:41;;;;;;;11.50;7.75;;;9.40;99.90;;;;;;4987465;28;20030;-84
2023/04/06 09:05:09;;;;;;;15.02;8.18;;;9.50;99.90;;;;;;5024428;28;20030;-83
2023/04/06 09:07:35;;;;;;;9.95;7.10;;;9.50;99.90;;;;;;4983281;28;20032;-83
2023/04/06 09:10:01;;;;;;;12.02;7.38;;;9.70;99.90;;;;;;5006543;28;20057;-84
2023/04/06 09:12:28;;;;;;;11.80;7.65;;;9.70;99.90;;;;;;5004729;28;20088;-86
2023/04/06 09:14:55;;;;;;;12.32;8.13;;;9.70;99.90;;;;;;5001045;28;20470;-83
2023/04/06 09:17:29;;;;;;;12.85;8.30;;;9.80;99.90;;;;;;5011337;28;20026;-83
2023/04/06 09:19:56;;;;;;;13.50;8.25;;;10.00;99.90;;;;;;4994163;28;20105;-84
2023/04/06 09:22:22;;;;;;;12.95;8.45;;;10.00;99.90;;;;;;4998191;28;20033;-82
2023/04/06 09:24:53;;;;;;;14.45;10.20;;;10.20;99.90;;;;;;5003732;28;20060;-83
2023/04/06 09:27:30;;;;;;;13.48;9.77;;;10.10;99.90;;;;;;4985899;28;20022;-83
2023/04/06 09:30:13;;;;;;;12.98;7.93;;;10.10;99.90;;;;;;4990918;28;20075;-83
2023/04/06 09:32:50;;;;;;;9.23;7.15;;;10.40;99.90;;;;;;5005881;28;20491;-85
2023/04/06 09:35:17;;;;;;;8.30;6.13;;;10.50;99.90;;;;;;4991411;28;20029;-83
2023/04/06 09:37:43;;;;;;;10.98;6.55;;;10.70;99.90;;;;;;4991969;28;20018;-85
2023/04/06 09:40:10;;;;;;;9.10;5.82;;;10.70;99.90;;;;;;5008470;28;20041;-81
2023/04/06 09:42:36;;;;;;;9.40;5.95;;;10.80;99.90;;;;;;4987332;28;20030;-84
2023/04/06 09:45:02;;;;;;;10.15;6.28;;;11.10;99.90;;;;;;4991958;28;20049;-82
2023/04/06 09:47:33;;;;;;;9.80;6.28;;;11.20;99.90;;;;;;4994503;28;20045;-79
2023/04/06 09:49:59;;;;;;;;;;;11.40;99.90;;;;;;5004794;28;20466;-83
2023/04/06 09:52:38;;;;;;;9.90;6.50;;;11.50;99.90;;;;;;5024747;28;20289;-83
2023/04/06 09:55:05;;;;;;;10.52;6.60;;;11.30;99.90;;;;;;5016351;28;20034;-84
2023/04/06 09:57:57;;;;;;;8.98;6.45;;;11.40;99.90;;;;;;5019573;28;20375;-85
2023/04/06 10:00:24;;;;;;;9.98;7.40;;;11.40;99.90;;;;;;5008383;28;20041;-85
2023/04/06 10:02:58;;;;;;;10.82;7.28;;;11.40;99.90;;;;;;5012812;28;20469;-85
2023/04/06 10:05:41;;;;;;;10.02;6.72;;;11.20;99.90;;;;;;5004408;28;20033;-82
2023/04/06 10:08:10;;;;;;;14.65;9.50;;;11.40;99.90;;;;;;5001465;28;20029;-83
2023/04/06 10:10:36;;;;;;;13.50;7.88;;;11.00;99.90;;;;;;5017954;28;20367;-83
2023/04/06 10:13:03;;;;;;;10.70;7.32;;;11.00;99.90;;;;;;5006274;28;20045;-86
2023/04/06 10:15:32;;;;;;;11.82;7.95;;;11.20;99.90;;;;;;5009258;28;20080;-84
2023/04/06 10:17:59;;;;;;;13.73;7.60;;;11.40;99.90;;;;;;5016692;28;20045;-82
2023/04/06 10:20:33;;;;;;;13.55;9.02;;;11.40;99.90;;;;;;5008010;28;20244;-81
2023/04/06 10:23:09;;;;;;;10.25;6.70;;;11.50;99.90;;;;;;5016927;28;20030;-83
2023/04/06 10:25:36;;;;;;;11.75;6.97;;;11.60;99.90;;;;;;5017092;28;20048;-84
2023/04/06 10:28:06;;;;;;;11.02;7.50;;;11.80;99.90;;;;;;4989194;28;20026;-83
2023/04/06 10:30:32;;;;;;;;;;;11.80;99.90;;;;;;5018389;28;20077;-80
2023/04/06 10:32:58;;;;;;;12.27;7.93;;;11.70;99.90;;;;;;5021122;28;20313;-81
2023/04/06 10:35:35;;;;;;;11.05;7.57;;;11.90;99.90;;;;;;5024087;28;20037;-81
2023/04/06 10:38:03;;;;;;;10.95;7.35;;;11.70;99.90;;;;;;4990484;28;20031;-83
2023/04/06 10:40:31;;;;;;;12.23;6.88;;;11.70;99.90;;;;;;4995860;28;20906;-83
2023/04/06 10:43:27;;;;;;;11.63;7.30;;;11.60;99.90;;;;;;4990876;28;20041;-85
2023/04/06 10:45:57;;;;;;;13.38;7.35;;;11.60;99.90;;;;;;5007304;28;20065;-83
2023/04/06 10:48:23;;;;;;;10.80;6.28;;;11.60;99.90;;;;;;5006155;28;20096;-82
2023/04/06 10:50:52;;;;;;;12.98;8.27;;;11.60;99.90;;;;;;4989598;28;20465;-84
2023/04/06 10:53:23;;;;;;;12.68;7.07;;;11.40;99.90;;;;;;5006492;28;20037;-83
2023/04/06 10:55:50;;;;;;;9.77;5.95;;;11.50;99.90;;;;;;5004803;28;20076;-80
2023/04/06 10:58:16;;;;;;;10.05;6.30;;;11.50;99.90;;;;;;4998144;28;20038;-81
2023/04/06 11:00:47;;;;;;;10.70;6.53;;;11.60;99.90;;;;;;5006869;28;20048;-81
2023/04/06 11:03:21;;;;;;;11.50;7.47;;;11.50;99.90;;;;;;5006751;28;20094;-81
2023/04/06 11:05:51;;;;;;;10.82;7.15;;;11.60;99.90;;;;;;4993596;28;20041;-81
2023/04/06 11:08:22;;;;;;;10.70;5.75;;;11.60;99.90;;;;;;4989246;28;20025;-80
2023/04/06 11:10:49;;;;;;;10.88;6.82;;;11.80;99.90;;;;;;4998616;28;20161;-81
2023/04/06 11:13:15;;;;;;;12.65;8.10;;;11.70;99.90;;;;;;4991982;28;20054;-83
2023/04/06 11:15:40;;;;;;;11.70;7.15;;;11.80;99.90;;;;;;4989084;28;20482;-84
2023/04/06 11:18:06;;;;;;;10.88;6.53;;;11.70;99.90;;;;;;4988986;28;20030;-83
2023/04/06 11:20:32;;;;;;;8.75;5.93;;;11.70;99.90;;;;;;4986344;28;20093;-82
2023/04/06 11:22:59;;;;;;;12.48;6.85;;;11.90;99.90;;;;;;4988468;28;20401;-83
2023/04/06 11:25:27;;;;;;;11.70;6.93;;;12.20;99.90;;;;;;5008279;28;20048;-82
2023/04/06 11:27:53;;;;;;;11.23;7.20;;;12.00;99.90;;;;;;5004634;28;20773;-82
2023/04/06 11:30:19;;;;;;;10.52;6.93;;;12.30;99.90;;;;;;5003359;28;20037;-84
2023/04/06 11:32:45;;;;;;;13.70;8.93;;;12.60;99.90;;;;;;4985474;28;20037;-79
2023/04/06 11:35:21;;;;;;;12.45;7.57;;;12.30;99.90;;;;;;5001243;28;20128;-83
2023/04/06 11:37:51;;;;;;;8.32;5.97;;;12.80;99.90;;;;;;5001866;28;20484;-82
2023/04/06 11:40:24;;;;;;;9.05;6.70;;;13.10;99.90;;;;;;5002805;28;20271;-83
2023/04/06 11:42:55;;;;;;;8.32;5.43;;;12.90;99.90;;;;;;4985021;28;20048;-81
2023/04/06 11:45:21;;;;;;;10.02;6.38;;;12.50;99.90;;;;;;5002912;28;20136;-82
2023/04/06 11:47:59;;;;;;;9.65;7.68;;;12.60;99.90;;;;;;5000516;28;20375;-81
2023/04/06 11:50:25;;;;;;;11.13;7.55;;;12.40;99.90;;;;;;5000237;28;20228;-80
2023/04/06 11:53:02;;;;;;;10.43;8.00;;;12.40;99.90;;;;;;4984327;28;20109;-80
2023/04/06 11:55:28;;;;;;;9.27;5.97;;;12.40;99.90;;;;;;4984307;28;20582;-83
2023/04/06 11:57:54;;;;;;;8.23;5.90;;;12.50;99.90;;;;;;5001062;28;20033;-82
2023/04/06 12:00:20;;;;;;;12.25;7.68;;;12.90;99.90;;;;;;5008488;28;20855;-83
2023/04/06 12:02:47;;;;;;;11.35;7.68;;;12.60;99.90;;;;;;4990988;28;20121;-82
2023/04/06 12:05:13;;;;;;;9.52;6.53;;;12.60;99.90;;;;;;4984793;28;20147;-81
2023/04/06 12:07:39;;;;;;;9.20;5.80;;;12.80;99.90;;;;;;4984597;28;20383;-81
2023/04/06 12:10:05;;;;;;;9.60;7.85;;;12.90;99.90;;;;;;5002175;28;20040;-82
2023/04/06 12:12:31;;;;;;;10.10;7.13;;;12.30;99.90;;;;;;4991755;28;20483;-81
2023/04/06 12:14:58;;;;;;;8.63;6.40;;;12.30;99.90;;;;;;4983096;28;20559;-83
2023/04/06 12:17:24;;;;;;;11.23;7.90;;;12.10;99.90;;;;;;4983243;28;20048;-81
2023/04/06 12:19:50;;;;;;;9.00;6.63;;;11.80;99.90;;;;;;5003256;28;20041;-82
2023/04/06 12:22:17;;;;;;;8.88;6.20;;;11.70;99.90;;;;;;4990906;28;20084;-82
2023/04/06 12:24:43;;;;;;;7.22;5.05;;;11.60;99.90;;;;;;4989860;28;20792;-82
2023/04/06 12:27:10;;;;;;;6.25;4.82;;;11.50;99.90;;;;;;5001397;28;20124;-82
2023/04/06 12:29:38;;;;;;;7.00;4.03;;;11.60;99.90;;;;;;4991417;28;20044;-80
2023/04/06 12:32:05;;;;;;;5.50;2.90;;;11.70;99.90;;;;;;5000654;28;20038;-81
2023/04/06 12:34:31;;;;;;;7.28;4.63;;;11.70;99.90;;;;;;5002347;28;20206;-83
2023/04/06 12:36:57;;;;;;;5.78;4.28;;;11.70;99.90;;;;;;4984243;28;20717;-82
2023/04/06 12:39:23;;;;;;;8.75;5.60;;;11.60;99.90;;;;;;5001002;28;20034;-82
2023/04/06 12:41:48;;;;;;;5.93;4.32;;;11.20;99.90;;;;;;4997771;28;20058;-83
2023/04/06 12:44:14;;;;;;;8.02;5.05;;;11.00;99.90;;;;;;5002405;28;20048;-81
2023/04/06 12:46:40;;;;;;;5.70;3.55;;;10.70;99.90;;;;;;5007397;28;20551;-83
2023/04/06 12:49:06;;;;;;;5.90;3.63;;;10.80;99.90;;;;;;5001727;28;20038;-82
2023/04/06 12:51:31;;;;;;;7.43;3.65;;;10.70;99.90;;;;;;5000748;28;20040;-83
2023/04/06 12:53:57;;;;;;;6.25;3.30;;;10.70;99.90;;;;;;4992925;28;20033;-83
2023/04/06 12:56:23;;;;;;;6.22;4.07;;;10.40;99.90;;;;;;5001605;28;20030;-81